sensor_id;sensor_type;location;lat;lon;timestamp;P1;durP1;ratioP1;P2;durP2;ratioP2
23260;SDS011;11799;47.740;-3.390;2023-07-08T00:01:10;5.85;;;3.88;;
23260;SDS011;11799;47.740;-3.390;2023-07-08T00:03:40;4.28;;;3.67;;
23260;SDS011;11799;47.740;-3.390;2023-07-08T00:06:09;5.95;;;4.30;;
23260;SDS011;11799;47.740;-3.390;2023-07-08T00:08:41;4.38;;;3.92;;
23260;SDS011;11799;47.740;-3.390;2023-07-08T00:11:10;9.40;;;4.43;;
23260;SDS011;11799;47.740;-3.390;2023-07-08T00:16:02;5.55;;;4.03;;
23260;SDS011;11799;47.740;-3.390;2023-07-08T00:18:28;4.97;;;4.22;;
23260;SDS011;11799;47.740;-3.390;2023-07-08T00:20:53;9.18;;;4.75;;
23260;SDS011;11799;47.740;-3.390;2023-07-08T00:23:19;5.45;;;4.10;;
23260;SDS011;11799;47.740;-3.390;2023-07-08T00:25:47;5.40;;;4.28;;
23260;SDS011;11799;47.740;-3.390;2023-07-08T00:28:17;7.20;;;4.78;;
23260;SDS011;11799;47.740;-3.390;2023-07-08T00:30:46;4.43;;;4.03;;
23260;SDS011;11799;47.740;-3.390;2023-07-08T00:33:12;8.48;;;4.50;;
23260;SDS011;11799;47.740;-3.390;2023-07-08T00:35:38;7.60;;;4.22;;
23260;SDS011;11799;47.740;-3.390;2023-07-08T00:38:23;7.47;;;4.38;;
23260;SDS011;11799;47.740;-3.390;2023-07-08T00:40:58;7.53;;;4.30;;
23260;SDS011;11799;47.740;-3.390;2023-07-08T00:43:36;5.63;;;3.85;;
23260;SDS011;11799;47.740;-3.390;2023-07-08T00:46:09;4.00;;;3.00;;
23260;SDS011;11799;47.740;-3.390;2023-07-08T00:48:43;4.88;;;3.33;;
23260;SDS011;11799;47.740;-3.390;2023-07-08T00:51:11;5.03;;;3.40;;
23260;SDS011;11799;47.740;-3.390;2023-07-08T00:53:37;5.95;;;3.20;;
23260;SDS011;11799;47.740;-3.390;2023-07-08T00:56:06;4.80;;;2.90;;
23260;SDS011;11799;47.740;-3.390;2023-07-08T00:58:46;8.77;;;3.35;;
23260;SDS011;11799;47.740;-3.390;2023-07-08T01:01:18;3.80;;;3.15;;
23260;SDS011;11799;47.740;-3.390;2023-07-08T01:03:54;3.80;;;3.00;;
23260;SDS011;11799;47.740;-3.390;2023-07-08T01:06:26;5.43;;;3.35;;
23260;SDS011;11799;47.740;-3.390;2023-07-08T01:08:58;3.42;;;2.83;;
23260;SDS011;11799;47.740;-3.390;2023-07-08T01:11:28;3.10;;;2.80;;
23260;SDS011;11799;47.740;-3.390;2023-07-08T01:13:54;6.22;;;3.45;;
23260;SDS011;11799;47.740;-3.390;2023-07-08T01:16:21;4.32;;;2.78;;
23260;SDS011;11799;47.740;-3.390;2023-07-08T01:18:48;4.43;;;2.78;;
23260;SDS011;11799;47.740;-3.390;2023-07-08T01:23:55;4.60;;;2.47;;
23260;SDS011;11799;47.740;-3.390;2023-07-08T01:26:22;3.30;;;2.50;;
23260;SDS011;11799;47.740;-3.390;2023-07-08T01:28:50;3.83;;;2.70;;
23260;SDS011;11799;47.740;-3.390;2023-07-08T01:31:19;6.18;;;2.90;;
23260;SDS011;11799;47.740;-3.390;2023-07-08T01:33:44;4.85;;;2.92;;
23260;SDS011;11799;47.740;-3.390;2023-07-08T01:36:11;2.90;;;2.60;;
23260;SDS011;11799;47.740;-3.390;2023-07-08T01:38:36;4.88;;;2.65;;
23260;SDS011;11799;47.740;-3.390;2023-07-08T01:41:04;4.13;;;2.67;;
23260;SDS011;11799;47.740;-3.390;2023-07-08T01:43:30;4.45;;;2.60;;
23260;SDS011;11799;47.740;-3.390;2023-07-08T01:45:55;3.58;;;2.58;;
23260;SDS011;11799;47.740;-3.390;2023-07-08T01:48:25;5.93;;;2.83;;
23260;SDS011;11799;47.740;-3.390;2023-07-08T01:51:01;3.50;;;2.55;;
23260;SDS011;11799;47.740;-3.390;2023-07-08T01:53:39;3.45;;;2.80;;
23260;SDS011;11799;47.740;-3.390;2023-07-08T01:56:07;5.13;;;2.80;;
23260;SDS011;11799;47.740;-3.390;2023-07-08T01:58:33;3.85;;;3.00;;
23260;SDS011;11799;47.740;-3.390;2023-07-08T02:01:00;7.32;;;2.75;;
23260;SDS011;11799;47.740;-3.390;2023-07-08T02:03:26;3.05;;;2.65;;
23260;SDS011;11799;47.740;-3.390;2023-07-08T02:05:54;4.10;;;2.63;;
23260;SDS011;11799;47.740;-3.390;2023-07-08T02:08:20;5.63;;;2.70;;
23260;SDS011;11799;47.740;-3.390;2023-07-08T02:10:48;6.80;;;3.10;;
23260;SDS011;11799;47.740;-3.390;2023-07-08T02:13:16;3.08;;;2.80;;
23260;SDS011;11799;47.740;-3.390;2023-07-08T02:15:42;3.42;;;2.65;;
23260;SDS011;11799;47.740;-3.390;2023-07-08T02:18:07;3.08;;;2.47;;
23260;SDS011;11799;47.740;-3.390;2023-07-08T02:20:33;2.58;;;2.38;;
23260;SDS011;11799;47.740;-3.390;2023-07-08T02:22:58;5.97;;;2.85;;
23260;SDS011;11799;47.740;-3.390;2023-07-08T02:25:24;4.60;;;2.72;;
23260;SDS011;11799;47.740;-3.390;2023-07-08T02:27:49;3.65;;;2.58;;
23260;SDS011;11799;47.740;-3.390;2023-07-08T02:30:15;8.88;;;3.47;;
23260;SDS011;11799;47.740;-3.390;2023-07-08T02:32:41;4.55;;;3.10;;
23260;SDS011;11799;47.740;-3.390;2023-07-08T02:35:07;5.22;;;2.97;;
23260;SDS011;11799;47.740;-3.390;2023-07-08T02:37:34;5.55;;;2.85;;
23260;SDS011;11799;47.740;-3.390;2023-07-08T02:40:00;4.47;;;2.90;;
23260;SDS011;11799;47.740;-3.390;2023-07-08T02:42:26;9.07;;;2.90;;
23260;SDS011;11799;47.740;-3.390;2023-07-08T02:44:51;5.75;;;2.85;;
23260;SDS011;11799;47.740;-3.390;2023-07-08T02:47:17;2.92;;;2.50;;
23260;SDS011;11799;47.740;-3.390;2023-07-08T02:49:43;4.07;;;2.58;;
23260;SDS011;11799;47.740;-3.390;2023-07-08T02:52:08;3.03;;;2.40;;
23260;SDS011;11799;47.740;-3.390;2023-07-08T02:54:34;4.75;;;2.75;;
23260;SDS011;11799;47.740;-3.390;2023-07-08T02:57:00;2.80;;;2.50;;
23260;SDS011;11799;47.740;-3.390;2023-07-08T02:59:25;3.05;;;2.50;;
23260;SDS011;11799;47.740;-3.390;2023-07-08T03:01:52;3.67;;;2.33;;
23260;SDS011;11799;47.740;-3.390;2023-07-08T03:04:18;3.90;;;2.22;;
23260;SDS011;11799;47.740;-3.390;2023-07-08T03:06:47;4.40;;;2.30;;
23260;SDS011;11799;47.740;-3.390;2023-07-08T03:09:15;4.63;;;2.40;;
23260;SDS011;11799;47.740;-3.390;2023-07-08T03:11:41;6.07;;;2.50;;
23260;SDS011;11799;47.740;-3.390;2023-07-08T03:14:07;3.28;;;2.53;;
23260;SDS011;11799;47.740;-3.390;2023-07-08T03:16:33;6.95;;;2.50;;
23260;SDS011;11799;47.740;-3.390;2023-07-08T03:18:59;3.88;;;2.53;;
23260;SDS011;11799;47.740;-3.390;2023-07-08T03:21:24;3.97;;;2.40;;
23260;SDS011;11799;47.740;-3.390;2023-07-08T03:23:50;5.95;;;2.50;;
23260;SDS011;11799;47.740;-3.390;2023-07-08T03:26:20;4.95;;;2.65;;
23260;SDS011;11799;47.740;-3.390;2023-07-08T03:28:48;3.58;;;2.60;;
23260;SDS011;11799;47.740;-3.390;2023-07-08T03:31:14;3.88;;;2.75;;
23260;SDS011;11799;47.740;-3.390;2023-07-08T03:33:40;3.05;;;2.38;;
23260;SDS011;11799;47.740;-3.390;2023-07-08T03:36:11;7.70;;;2.45;;
23260;SDS011;11799;47.740;-3.390;2023-07-08T03:38:47;4.78;;;2.60;;
23260;SDS011;11799;47.740;-3.390;2023-07-08T03:41:17;7.13;;;2.53;;
23260;SDS011;11799;47.740;-3.390;2023-07-08T03:43:43;4.20;;;2.40;;
23260;SDS011;11799;47.740;-3.390;2023-07-08T03:46:11;3.88;;;2.33;;
23260;SDS011;11799;47.740;-3.390;2023-07-08T03:48:38;4.20;;;2.75;;
23260;SDS011;11799;47.740;-3.390;2023-07-08T03:51:14;8.85;;;4.13;;
23260;SDS011;11799;47.740;-3.390;2023-07-08T03:53:46;5.07;;;2.35;;
23260;SDS011;11799;47.740;-3.390;2023-07-08T03:56:12;5.70;;;3.13;;
23260;SDS011;11799;47.740;-3.390;2023-07-08T03:58:39;3.60;;;2.55;;
23260;SDS011;11799;47.740;-3.390;2023-07-08T04:01:09;7.22;;;3.17;;
23260;SDS011;11799;47.740;-3.390;2023-07-08T04:03:46;5.15;;;2.80;;
23260;SDS011;11799;47.740;-3.390;2023-07-08T04:06:12;3.67;;;3.00;;
23260;SDS011;11799;47.740;-3.390;2023-07-08T04:08:39;5.35;;;2.85;;
23260;SDS011;11799;47.740;-3.390;2023-07-08T04:11:05;6.28;;;2.80;;
23260;SDS011;11799;47.740;-3.390;2023-07-08T04:13:31;6.15;;;3.40;;
23260;SDS011;11799;47.740;-3.390;2023-07-08T04:16:02;4.45;;;2.90;;
23260;SDS011;11799;47.740;-3.390;2023-07-08T04:18:31;5.53;;;2.92;;
23260;SDS011;11799;47.740;-3.390;2023-07-08T04:20:57;4.18;;;3.05;;
23260;SDS011;11799;47.740;-3.390;2023-07-08T04:23:24;7.90;;;3.50;;
23260;SDS011;11799;47.740;-3.390;2023-07-08T04:25:50;9.13;;;2.95;;
23260;SDS011;11799;47.740;-3.390;2023-07-08T04:28:19;3.10;;;2.80;;
23260;SDS011;11799;47.740;-3.390;2023-07-08T04:30:44;7.55;;;3.33;;
23260;SDS011;11799;47.740;-3.390;2023-07-08T04:33:11;4.80;;;2.72;;
23260;SDS011;11799;47.740;-3.390;2023-07-08T04:35:37;6.30;;;3.63;;
23260;SDS011;11799;47.740;-3.390;2023-07-08T04:38:09;5.35;;;2.85;;
23260;SDS011;11799;47.740;-3.390;2023-07-08T04:40:41;4.25;;;3.15;;
23260;SDS011;11799;47.740;-3.390;2023-07-08T04:43:07;5.28;;;2.97;;
23260;SDS011;11799;47.740;-3.390;2023-07-08T04:45:33;6.78;;;2.55;;
23260;SDS011;11799;47.740;-3.390;2023-07-08T04:48:01;6.57;;;3.13;;
23260;SDS011;11799;47.740;-3.390;2023-07-08T04:50:34;5.63;;;3.25;;
23260;SDS011;11799;47.740;-3.390;2023-07-08T04:53:00;7.38;;;3.40;;
23260;SDS011;11799;47.740;-3.390;2023-07-08T04:55:27;5.78;;;3.40;;
23260;SDS011;11799;47.740;-3.390;2023-07-08T04:57:53;7.65;;;3.45;;
23260;SDS011;11799;47.740;-3.390;2023-07-08T05:00:18;7.38;;;3.70;;
23260;SDS011;11799;47.740;-3.390;2023-07-08T05:02:44;6.07;;;3.30;;
23260;SDS011;11799;47.740;-3.390;2023-07-08T05:05:10;5.63;;;3.03;;
23260;SDS011;11799;47.740;-3.390;2023-07-08T05:07:36;8.65;;;3.90;;
23260;SDS011;11799;47.740;-3.390;2023-07-08T05:10:02;5.45;;;3.50;;
23260;SDS011;11799;47.740;-3.390;2023-07-08T05:12:27;7.97;;;3.88;;
23260;SDS011;11799;47.740;-3.390;2023-07-08T05:14:53;5.30;;;3.67;;
23260;SDS011;11799;47.740;-3.390;2023-07-08T05:17:19;6.35;;;3.97;;
23260;SDS011;11799;47.740;-3.390;2023-07-08T05:19:44;5.10;;;3.70;;
23260;SDS011;11799;47.740;-3.390;2023-07-08T05:22:11;9.60;;;3.72;;
23260;SDS011;11799;47.740;-3.390;2023-07-08T05:24:37;5.35;;;3.47;;
23260;SDS011;11799;47.740;-3.390;2023-07-08T05:27:03;6.18;;;3.63;;
23260;SDS011;11799;47.740;-3.390;2023-07-08T05:29:29;9.38;;;3.63;;
23260;SDS011;11799;47.740;-3.390;2023-07-08T05:31:55;8.20;;;3.28;;
23260;SDS011;11799;47.740;-3.390;2023-07-08T05:34:20;3.22;;;2.92;;
23260;SDS011;11799;47.740;-3.390;2023-07-08T05:36:46;3.75;;;3.03;;
23260;SDS011;11799;47.740;-3.390;2023-07-08T05:39:12;6.60;;;3.63;;
23260;SDS011;11799;47.740;-3.390;2023-07-08T05:41:38;6.35;;;3.25;;
23260;SDS011;11799;47.740;-3.390;2023-07-08T05:44:04;6.50;;;3.03;;
23260;SDS011;11799;47.740;-3.390;2023-07-08T05:46:29;3.28;;;2.97;;
23260;SDS011;11799;47.740;-3.390;2023-07-08T05:48:55;7.45;;;3.08;;
23260;SDS011;11799;47.740;-3.390;2023-07-08T05:51:21;7.00;;;3.60;;
23260;SDS011;11799;47.740;-3.390;2023-07-08T05:53:46;4.85;;;2.95;;
23260;SDS011;11799;47.740;-3.390;2023-07-08T05:56:12;6.13;;;3.25;;
23260;SDS011;11799;47.740;-3.390;2023-07-08T05:58:38;6.45;;;3.42;;
23260;SDS011;11799;47.740;-3.390;2023-07-08T06:01:03;5.80;;;3.10;;
23260;SDS011;11799;47.740;-3.390;2023-07-08T06:03:29;6.15;;;3.15;;
23260;SDS011;11799;47.740;-3.390;2023-07-08T06:05:54;4.03;;;3.10;;
23260;SDS011;11799;47.740;-3.390;2023-07-08T06:08:21;5.30;;;3.08;;
23260;SDS011;11799;47.740;-3.390;2023-07-08T06:10:47;5.32;;;3.13;;
23260;SDS011;11799;47.740;-3.390;2023-07-08T06:13:13;4.30;;;3.35;;
23260;SDS011;11799;47.740;-3.390;2023-07-08T06:15:39;5.05;;;3.08;;
23260;SDS011;11799;47.740;-3.390;2023-07-08T06:18:05;7.00;;;3.50;;
23260;SDS011;11799;47.740;-3.390;2023-07-08T06:20:30;8.90;;;3.55;;
23260;SDS011;11799;47.740;-3.390;2023-07-08T06:22:56;8.23;;;4.00;;
23260;SDS011;11799;47.740;-3.390;2023-07-08T06:25:22;7.43;;;4.20;;
23260;SDS011;11799;47.740;-3.390;2023-07-08T06:27:47;7.53;;;3.80;;
23260;SDS011;11799;47.740;-3.390;2023-07-08T06:30:13;5.93;;;3.28;;
23260;SDS011;11799;47.740;-3.390;2023-07-08T06:32:39;7.25;;;4.05;;
23260;SDS011;11799;47.740;-3.390;2023-07-08T06:35:04;7.15;;;3.45;;
23260;SDS011;11799;47.740;-3.390;2023-07-08T06:37:30;5.80;;;3.28;;
23260;SDS011;11799;47.740;-3.390;2023-07-08T06:39:56;6.57;;;3.38;;
23260;SDS011;11799;47.740;-3.390;2023-07-08T06:42:22;6.85;;;3.30;;
23260;SDS011;11799;47.740;-3.390;2023-07-08T06:44:57;8.80;;;3.30;;
23260;SDS011;11799;47.740;-3.390;2023-07-08T06:47:22;8.88;;;3.83;;
23260;SDS011;11799;47.740;-3.390;2023-07-08T06:49:48;4.22;;;3.20;;
23260;SDS011;11799;47.740;-3.390;2023-07-08T06:52:14;4.78;;;3.15;;
23260;SDS011;11799;47.740;-3.390;2023-07-08T06:54:40;10.63;;;3.58;;
23260;SDS011;11799;47.740;-3.390;2023-07-08T06:57:06;5.32;;;3.33;;
23260;SDS011;11799;47.740;-3.390;2023-07-08T06:59:32;6.85;;;3.83;;
23260;SDS011;11799;47.740;-3.390;2023-07-08T07:01:58;7.15;;;3.55;;
23260;SDS011;11799;47.740;-3.390;2023-07-08T07:04:24;7.20;;;3.15;;
23260;SDS011;11799;47.740;-3.390;2023-07-08T07:06:49;6.43;;;3.20;;
23260;SDS011;11799;47.740;-3.390;2023-07-08T07:09:15;7.68;;;3.58;;
23260;SDS011;11799;47.740;-3.390;2023-07-08T07:11:40;5.70;;;3.63;;
23260;SDS011;11799;47.740;-3.390;2023-07-08T07:14:06;8.20;;;3.50;;
23260;SDS011;11799;47.740;-3.390;2023-07-08T07:16:32;7.43;;;3.50;;
23260;SDS011;11799;47.740;-3.390;2023-07-08T07:18:57;6.88;;;3.30;;
23260;SDS011;11799;47.740;-3.390;2023-07-08T07:21:23;8.20;;;4.30;;
23260;SDS011;11799;47.740;-3.390;2023-07-08T07:23:48;7.57;;;4.13;;
23260;SDS011;11799;47.740;-3.390;2023-07-08T07:26:14;7.07;;;3.85;;
23260;SDS011;11799;47.740;-3.390;2023-07-08T07:28:39;7.30;;;4.20;;
23260;SDS011;11799;47.740;-3.390;2023-07-08T07:31:05;9.52;;;4.20;;
23260;SDS011;11799;47.740;-3.390;2023-07-08T07:33:31;5.13;;;3.65;;
23260;SDS011;11799;47.740;-3.390;2023-07-08T07:35:57;7.25;;;3.53;;
23260;SDS011;11799;47.740;-3.390;2023-07-08T07:38:23;12.10;;;4.20;;
23260;SDS011;11799;47.740;-3.390;2023-07-08T07:40:53;7.95;;;3.95;;
23260;SDS011;11799;47.740;-3.390;2023-07-08T07:43:20;6.82;;;3.72;;
23260;SDS011;11799;47.740;-3.390;2023-07-08T07:45:49;5.97;;;3.55;;
23260;SDS011;11799;47.740;-3.390;2023-07-08T07:48:16;6.72;;;3.30;;
23260;SDS011;11799;47.740;-3.390;2023-07-08T07:50:44;8.82;;;3.50;;
23260;SDS011;11799;47.740;-3.390;2023-07-08T07:53:11;7.28;;;3.08;;
23260;SDS011;11799;47.740;-3.390;2023-07-08T07:55:36;6.63;;;3.63;;
23260;SDS011;11799;47.740;-3.390;2023-07-08T07:58:02;4.60;;;3.05;;
23260;SDS011;11799;47.740;-3.390;2023-07-08T08:00:28;7.90;;;3.40;;
23260;SDS011;11799;47.740;-3.390;2023-07-08T08:02:55;5.80;;;3.13;;
23260;SDS011;11799;47.740;-3.390;2023-07-08T08:05:20;4.55;;;2.67;;
23260;SDS011;11799;47.740;-3.390;2023-07-08T08:07:47;5.07;;;2.78;;
23260;SDS011;11799;47.740;-3.390;2023-07-08T08:10:13;7.75;;;2.92;;
23260;SDS011;11799;47.740;-3.390;2023-07-08T08:12:39;7.25;;;3.20;;
23260;SDS011;11799;47.740;-3.390;2023-07-08T08:15:05;6.57;;;2.88;;
23260;SDS011;11799;47.740;-3.390;2023-07-08T08:17:31;7.05;;;2.90;;
23260;SDS011;11799;47.740;-3.390;2023-07-08T08:19:56;4.63;;;2.90;;
23260;SDS011;11799;47.740;-3.390;2023-07-08T08:22:22;4.93;;;2.58;;
23260;SDS011;11799;47.740;-3.390;2023-07-08T08:24:48;7.88;;;3.50;;
23260;SDS011;11799;47.740;-3.390;2023-07-08T08:27:14;3.85;;;3.00;;
23260;SDS011;11799;47.740;-3.390;2023-07-08T08:29:40;6.10;;;2.70;;
23260;SDS011;11799;47.740;-3.390;2023-07-08T08:32:06;3.67;;;2.90;;
23260;SDS011;11799;47.740;-3.390;2023-07-08T08:34:32;4.97;;;2.72;;
23260;SDS011;11799;47.740;-3.390;2023-07-08T08:36:57;6.63;;;3.17;;
23260;SDS011;11799;47.740;-3.390;2023-07-08T08:39:23;4.80;;;3.00;;
23260;SDS011;11799;47.740;-3.390;2023-07-08T08:41:51;5.60;;;3.10;;
23260;SDS011;11799;47.740;-3.390;2023-07-08T08:44:22;4.97;;;2.65;;
23260;SDS011;11799;47.740;-3.390;2023-07-08T08:50:00;4.68;;;3.20;;
23260;SDS011;11799;47.740;-3.390;2023-07-08T08:52:31;10.13;;;3.08;;
23260;SDS011;11799;47.740;-3.390;2023-07-08T08:54:56;5.30;;;2.80;;
23260;SDS011;11799;47.740;-3.390;2023-07-08T09:00:09;6.28;;;2.78;;
23260;SDS011;11799;47.740;-3.390;2023-07-08T09:02:49;5.78;;;2.65;;
23260;SDS011;11799;47.740;-3.390;2023-07-08T09:05:22;8.77;;;2.97;;
23260;SDS011;11799;47.740;-3.390;2023-07-08T09:10:51;8.98;;;3.00;;
23260;SDS011;11799;47.740;-3.390;2023-07-08T09:13:32;6.18;;;2.92;;
23260;SDS011;11799;47.740;-3.390;2023-07-08T09:19:00;6.07;;;3.05;;
23260;SDS011;11799;47.740;-3.390;2023-07-08T09:21:59;5.20;;;2.75;;
23260;SDS011;11799;47.740;-3.390;2023-07-08T09:27:21;6.85;;;2.97;;
23260;SDS011;11799;47.740;-3.390;2023-07-08T09:29:47;8.15;;;3.08;;
23260;SDS011;11799;47.740;-3.390;2023-07-08T09:32:15;10.93;;;3.70;;
23260;SDS011;11799;47.740;-3.390;2023-07-08T09:34:47;8.10;;;3.22;;
23260;SDS011;11799;47.740;-3.390;2023-07-08T09:39:46;7.38;;;2.42;;
23260;SDS011;11799;47.740;-3.390;2023-07-08T09:42:12;6.43;;;2.60;;
23260;SDS011;11799;47.740;-3.390;2023-07-08T09:44:39;7.65;;;2.78;;
23260;SDS011;11799;47.740;-3.390;2023-07-08T09:47:08;9.52;;;2.53;;
23260;SDS011;11799;47.740;-3.390;2023-07-08T09:49:46;7.95;;;2.53;;
23260;SDS011;11799;47.740;-3.390;2023-07-08T09:52:12;6.20;;;2.10;;
23260;SDS011;11799;47.740;-3.390;2023-07-08T09:54:39;7.00;;;2.70;;
23260;SDS011;11799;47.740;-3.390;2023-07-08T09:57:11;9.63;;;2.28;;
23260;SDS011;11799;47.740;-3.390;2023-07-08T09:59:46;9.50;;;3.30;;
23260;SDS011;11799;47.740;-3.390;2023-07-08T10:03:02;7.03;;;2.40;;
23260;SDS011;11799;47.740;-3.390;2023-07-08T10:05:18;8.57;;;2.03;;
23260;SDS011;11799;47.740;-3.390;2023-07-08T10:07:48;11.48;;;2.00;;
23260;SDS011;11799;47.740;-3.390;2023-07-08T10:12:52;11.15;;;2.88;;
23260;SDS011;11799;47.740;-3.390;2023-07-08T10:15:23;6.85;;;1.70;;
23260;SDS011;11799;47.740;-3.390;2023-07-08T10:17:55;9.35;;;1.98;;
23260;SDS011;11799;47.740;-3.390;2023-07-08T10:20:21;7.65;;;2.60;;
23260;SDS011;11799;47.740;-3.390;2023-07-08T10:25:56;10.02;;;2.30;;
23260;SDS011;11799;47.740;-3.390;2023-07-08T10:28:41;11.90;;;2.13;;
23260;SDS011;11799;47.740;-3.390;2023-07-08T10:42:04;7.78;;;2.05;;
23260;SDS011;11799;47.740;-3.390;2023-07-08T10:55:20;10.43;;;2.25;;
23260;SDS011;11799;47.740;-3.390;2023-07-08T10:58:19;8.97;;;2.47;;
23260;SDS011;11799;47.740;-3.390;2023-07-08T11:01:06;7.68;;;2.50;;
23260;SDS011;11799;47.740;-3.390;2023-07-08T11:06:50;6.30;;;2.20;;
23260;SDS011;11799;47.740;-3.390;2023-07-08T11:12:19;11.48;;;2.60;;
23260;SDS011;11799;47.740;-3.390;2023-07-08T11:17:31;9.48;;;2.55;;
23260;SDS011;11799;47.740;-3.390;2023-07-08T11:22:52;11.40;;;3.05;;
23260;SDS011;11799;47.740;-3.390;2023-07-08T11:25:24;6.80;;;2.25;;
23260;SDS011;11799;47.740;-3.390;2023-07-08T11:27:53;10.52;;;2.47;;
23260;SDS011;11799;47.740;-3.390;2023-07-08T11:30:22;4.80;;;1.80;;
23260;SDS011;11799;47.740;-3.390;2023-07-08T11:32:56;5.75;;;1.77;;
23260;SDS011;11799;47.740;-3.390;2023-07-08T11:35:40;5.93;;;1.70;;
23260;SDS011;11799;47.740;-3.390;2023-07-08T11:38:19;7.45;;;2.22;;
23260;SDS011;11799;47.740;-3.390;2023-07-08T11:40:49;10.55;;;2.53;;
23260;SDS011;11799;47.740;-3.390;2023-07-08T11:43:26;9.13;;;2.58;;
23260;SDS011;11799;47.740;-3.390;2023-07-08T11:46:00;8.23;;;2.20;;
23260;SDS011;11799;47.740;-3.390;2023-07-08T11:48:33;10.45;;;3.00;;
23260;SDS011;11799;47.740;-3.390;2023-07-08T11:51:07;9.50;;;2.35;;
23260;SDS011;11799;47.740;-3.390;2023-07-08T11:53:38;9.73;;;2.28;;
23260;SDS011;11799;47.740;-3.390;2023-07-08T12:04:01;7.18;;;1.75;;
23260;SDS011;11799;47.740;-3.390;2023-07-08T12:06:43;6.80;;;1.90;;
23260;SDS011;11799;47.740;-3.390;2023-07-08T12:09:22;9.77;;;2.65;;
23260;SDS011;11799;47.740;-3.390;2023-07-08T12:11:57;6.88;;;1.83;;
23260;SDS011;11799;47.740;-3.390;2023-07-08T12:14:27;7.20;;;1.88;;
23260;SDS011;11799;47.740;-3.390;2023-07-08T12:16:54;4.28;;;1.45;;
23260;SDS011;11799;47.740;-3.390;2023-07-08T12:19:20;9.23;;;2.05;;
23260;SDS011;11799;47.740;-3.390;2023-07-08T12:21:47;12.65;;;2.15;;
23260;SDS011;11799;47.740;-3.390;2023-07-08T12:24:14;10.65;;;1.70;;
23260;SDS011;11799;47.740;-3.390;2023-07-08T12:26:40;6.43;;;1.67;;
23260;SDS011;11799;47.740;-3.390;2023-07-08T12:29:07;5.50;;;1.65;;
23260;SDS011;11799;47.740;-3.390;2023-07-08T12:31:36;7.35;;;1.52;;
23260;SDS011;11799;47.740;-3.390;2023-07-08T12:34:03;6.70;;;1.60;;
23260;SDS011;11799;47.740;-3.390;2023-07-08T12:36:31;7.97;;;2.10;;
23260;SDS011;11799;47.740;-3.390;2023-07-08T12:38:58;5.65;;;1.80;;
23260;SDS011;11799;47.740;-3.390;2023-07-08T12:41:31;12.27;;;1.98;;
23260;SDS011;11799;47.740;-3.390;2023-07-08T12:43:58;9.65;;;2.00;;
23260;SDS011;11799;47.740;-3.390;2023-07-08T12:46:25;8.50;;;2.00;;
23260;SDS011;11799;47.740;-3.390;2023-07-08T12:48:51;5.25;;;1.35;;
23260;SDS011;11799;47.740;-3.390;2023-07-08T12:51:18;7.93;;;1.70;;
23260;SDS011;11799;47.740;-3.390;2023-07-08T12:53:46;6.20;;;1.60;;
23260;SDS011;11799;47.740;-3.390;2023-07-08T12:56:12;6.80;;;1.83;;
23260;SDS011;11799;47.740;-3.390;2023-07-08T12:58:40;7.20;;;1.75;;
23260;SDS011;11799;47.740;-3.390;2023-07-08T13:01:08;7.20;;;1.63;;
23260;SDS011;11799;47.740;-3.390;2023-07-08T13:03:41;8.07;;;1.65;;
23260;SDS011;11799;47.740;-3.390;2023-07-08T13:06:09;6.07;;;1.83;;
23260;SDS011;11799;47.740;-3.390;2023-07-08T13:08:36;8.40;;;1.83;;
23260;SDS011;11799;47.740;-3.390;2023-07-08T13:11:04;10.23;;;2.50;;
23260;SDS011;11799;47.740;-3.390;2023-07-08T13:13:34;7.25;;;1.80;;
23260;SDS011;11799;47.740;-3.390;2023-07-08T13:16:02;6.93;;;1.70;;
23260;SDS011;11799;47.740;-3.390;2023-07-08T13:18:36;5.43;;;1.42;;
23260;SDS011;11799;47.740;-3.390;2023-07-08T13:21:04;8.98;;;1.60;;
23260;SDS011;11799;47.740;-3.390;2023-07-08T13:23:32;10.73;;;1.75;;
23260;SDS011;11799;47.740;-3.390;2023-07-08T13:25:59;4.60;;;1.20;;
23260;SDS011;11799;47.740;-3.390;2023-07-08T13:28:26;7.30;;;1.80;;
23260;SDS011;11799;47.740;-3.390;2023-07-08T13:30:53;6.68;;;1.50;;
23260;SDS011;11799;47.740;-3.390;2023-07-08T13:33:21;6.72;;;1.67;;
23260;SDS011;11799;47.740;-3.390;2023-07-08T13:35:47;4.70;;;1.52;;
23260;SDS011;11799;47.740;-3.390;2023-07-08T13:38:15;5.22;;;1.45;;
23260;SDS011;11799;47.740;-3.390;2023-07-08T13:40:48;6.80;;;1.30;;
23260;SDS011;11799;47.740;-3.390;2023-07-08T13:43:22;6.65;;;1.33;;
23260;SDS011;11799;47.740;-3.390;2023-07-08T13:45:50;5.00;;;1.60;;
23260;SDS011;11799;47.740;-3.390;2023-07-08T13:48:36;5.03;;;1.15;;
23260;SDS011;11799;47.740;-3.390;2023-07-08T13:51:06;3.05;;;1.30;;
23260;SDS011;11799;47.740;-3.390;2023-07-08T13:58:49;5.63;;;1.40;;
23260;SDS011;11799;47.740;-3.390;2023-07-08T14:01:25;4.07;;;1.50;;
23260;SDS011;11799;47.740;-3.390;2023-07-08T14:03:52;7.32;;;1.48;;
23260;SDS011;11799;47.740;-3.390;2023-07-08T14:06:21;4.55;;;1.35;;
23260;SDS011;11799;47.740;-3.390;2023-07-08T14:08:48;6.63;;;1.42;;
23260;SDS011;11799;47.740;-3.390;2023-07-08T14:11:14;6.80;;;1.83;;
23260;SDS011;11799;47.740;-3.390;2023-07-08T14:13:40;5.88;;;1.85;;
23260;SDS011;11799;47.740;-3.390;2023-07-08T14:16:10;7.93;;;1.65;;
23260;SDS011;11799;47.740;-3.390;2023-07-08T14:18:49;6.45;;;1.35;;
23260;SDS011;11799;47.740;-3.390;2023-07-08T14:21:15;6.95;;;1.50;;
23260;SDS011;11799;47.740;-3.390;2023-07-08T14:23:41;6.68;;;1.75;;
23260;SDS011;11799;47.740;-3.390;2023-07-08T14:26:10;6.63;;;1.75;;
23260;SDS011;11799;47.740;-3.390;2023-07-08T14:28:36;5.95;;;1.27;;
23260;SDS011;11799;47.740;-3.390;2023-07-08T14:31:02;5.68;;;1.40;;
23260;SDS011;11799;47.740;-3.390;2023-07-08T14:33:28;8.30;;;2.10;;
23260;SDS011;11799;47.740;-3.390;2023-07-08T14:35:54;6.70;;;1.98;;
23260;SDS011;11799;47.740;-3.390;2023-07-08T14:38:19;6.97;;;2.15;;
23260;SDS011;11799;47.740;-3.390;2023-07-08T14:40:45;9.05;;;1.85;;
23260;SDS011;11799;47.740;-3.390;2023-07-08T14:43:14;9.35;;;2.08;;
23260;SDS011;11799;47.740;-3.390;2023-07-08T14:45:41;5.82;;;2.03;;
23260;SDS011;11799;47.740;-3.390;2023-07-08T14:50:37;6.05;;;1.70;;
23260;SDS011;11799;47.740;-3.390;2023-07-08T14:53:03;6.50;;;2.08;;
23260;SDS011;11799;47.740;-3.390;2023-07-08T14:55:29;8.68;;;1.80;;
23260;SDS011;11799;47.740;-3.390;2023-07-08T14:57:54;9.95;;;2.05;;
23260;SDS011;11799;47.740;-3.390;2023-07-08T15:00:21;6.88;;;2.17;;
23260;SDS011;11799;47.740;-3.390;2023-07-08T15:02:48;8.40;;;2.10;;
23260;SDS011;11799;47.740;-3.390;2023-07-08T15:05:18;8.52;;;2.33;;
23260;SDS011;11799;47.740;-3.390;2023-07-08T15:07:54;9.25;;;1.70;;
23260;SDS011;11799;47.740;-3.390;2023-07-08T15:10:23;8.48;;;2.22;;
23260;SDS011;11799;47.740;-3.390;2023-07-08T15:12:50;10.80;;;2.30;;
23260;SDS011;11799;47.740;-3.390;2023-07-08T15:15:17;6.88;;;2.00;;
23260;SDS011;11799;47.740;-3.390;2023-07-08T15:17:48;8.35;;;1.67;;
23260;SDS011;11799;47.740;-3.390;2023-07-08T15:20:14;6.43;;;2.20;;
23260;SDS011;11799;47.740;-3.390;2023-07-08T15:22:41;9.02;;;1.90;;
23260;SDS011;11799;47.740;-3.390;2023-07-08T15:25:08;13.25;;;2.50;;
23260;SDS011;11799;47.740;-3.390;2023-07-08T15:27:35;9.93;;;1.90;;
23260;SDS011;11799;47.740;-3.390;2023-07-08T15:30:00;6.20;;;1.48;;
23260;SDS011;11799;47.740;-3.390;2023-07-08T15:32:26;5.70;;;1.55;;
23260;SDS011;11799;47.740;-3.390;2023-07-08T15:34:51;5.82;;;1.50;;
23260;SDS011;11799;47.740;-3.390;2023-07-08T15:37:18;6.88;;;1.73;;
23260;SDS011;11799;47.740;-3.390;2023-07-08T15:39:44;10.93;;;1.73;;
23260;SDS011;11799;47.740;-3.390;2023-07-08T15:42:12;4.90;;;1.65;;
23260;SDS011;11799;47.740;-3.390;2023-07-08T15:44:38;7.93;;;1.70;;
23260;SDS011;11799;47.740;-3.390;2023-07-08T15:47:04;5.38;;;1.70;;
23260;SDS011;11799;47.740;-3.390;2023-07-08T15:49:33;6.35;;;1.70;;
23260;SDS011;11799;47.740;-3.390;2023-07-08T15:51:59;21.38;;;3.15;;
23260;SDS011;11799;47.740;-3.390;2023-07-08T15:54:25;8.13;;;1.80;;
23260;SDS011;11799;47.740;-3.390;2023-07-08T15:56:52;11.55;;;2.10;;